createdAt,value
2018-08-10T03:00:58.345Z,18.10
2018-08-10T03:01:58.603Z,18.03
2018-08-10T03:03:59.204Z,18.07
2018-08-10T03:04:59.561Z,18.11
2018-08-10T03:05:59.026Z,18.15
2018-08-10T03:06:59.335Z,18.11
2018-08-10T03:07:59.306Z,18.16
2018-08-10T03:08:57.814Z,18.11
2018-08-10T03:09:57.700Z,18.11
2018-08-10T03:10:57.814Z,18.05
2018-08-10T03:11:58.037Z,18.03
2018-08-10T03:12:58.165Z,18.07
2018-08-10T03:13:58.387Z,18.08
2018-08-10T03:14:58.590Z,18.04
2018-08-10T03:15:58.764Z,18.10
2018-08-10T03:16:58.903Z,18.05
2018-08-10T03:17:59.077Z,17.94
2018-08-10T03:18:59.228Z,17.98
2018-08-10T03:19:59.318Z,18.00
2018-08-10T03:20:59.553Z,18.04
2018-08-10T03:21:59.695Z,18.05
2018-08-10T03:22:59.894Z,18.16
2018-08-10T03:24:00.069Z,18.10
2018-08-10T03:25:00.164Z,18.13
2018-08-10T03:26:00.381Z,18.19
2018-08-10T03:27:00.480Z,18.10
2018-08-10T03:28:00.760Z,18.18
2018-08-10T03:29:00.851Z,18.29
2018-08-10T03:30:01.030Z,18.26
2018-08-10T03:31:01.205Z,18.25
2018-08-10T03:32:01.406Z,18.40
2018-08-10T03:33:01.548Z,18.28
2018-08-10T03:34:01.686Z,18.34
2018-08-10T03:35:01.879Z,18.34
2018-08-10T03:36:01.976Z,18.25
2018-08-10T03:37:02.200Z,18.34
2018-08-10T03:38:02.216Z,18.26
2018-08-10T03:39:02.510Z,18.31
2018-08-10T03:40:02.614Z,18.34
2018-08-10T03:41:02.753Z,18.41
2018-08-10T03:42:02.963Z,18.31
2018-08-10T03:43:03.155Z,18.31
2018-08-10T03:44:03.315Z,18.34
2018-08-10T03:45:03.542Z,18.37
2018-08-10T03:46:03.581Z,18.45
2018-08-10T03:47:03.815Z,18.60
2018-08-10T03:48:04.009Z,18.55
2018-08-10T03:49:04.112Z,18.55
2018-08-10T03:50:04.354Z,18.44
2018-08-10T03:51:04.484Z,18.35
2018-08-10T03:52:04.588Z,18.33
2018-08-10T03:53:04.802Z,18.26
2018-08-10T03:54:04.973Z,18.18
2018-08-10T03:55:05.176Z,18.28
2018-08-10T03:56:05.365Z,18.29
2018-08-10T03:57:05.492Z,18.26
2018-08-10T03:58:05.637Z,18.19
2018-08-10T03:59:05.835Z,18.22
2018-08-10T04:00:06.014Z,18.22
2018-08-10T04:01:06.335Z,18.34
2018-08-10T04:02:06.247Z,18.26
2018-08-10T04:03:06.527Z,18.23
2018-08-10T04:04:06.672Z,18.19
2018-08-10T04:05:06.804Z,18.18
2018-08-10T04:06:06.980Z,18.15
2018-08-10T04:07:07.105Z,18.25
2018-08-10T04:08:07.295Z,18.11
2018-08-10T04:09:07.469Z,18.15
2018-08-10T04:10:07.544Z,18.11
2018-08-10T04:11:07.883Z,18.05
2018-08-10T04:12:08.070Z,18.01
2018-08-10T04:13:08.142Z,18.00
2018-08-10T04:14:08.310Z,17.97
2018-08-10T04:15:08.495Z,18.01
2018-08-10T04:16:08.715Z,17.95
2018-08-10T04:17:08.746Z,18.04
2018-08-10T04:18:08.925Z,17.98
2018-08-10T04:19:09.164Z,17.97
2018-08-10T04:20:09.251Z,17.97
2018-08-10T04:21:09.533Z,17.90
2018-08-10T04:22:09.640Z,17.98
2018-08-10T04:23:09.737Z,17.98
2018-08-10T04:24:09.994Z,18.01
2018-08-10T04:25:10.272Z,17.92
2018-08-10T04:26:10.405Z,17.92
2018-08-10T04:27:10.468Z,17.97
2018-08-10T04:28:10.681Z,17.90
2018-08-10T04:29:10.847Z,17.86
2018-08-10T04:30:11.137Z,17.87
2018-08-10T04:31:11.166Z,17.90
2018-08-10T04:32:11.321Z,17.83
2018-08-10T04:33:11.588Z,17.85
2018-08-10T04:34:11.696Z,17.90
2018-08-10T04:35:11.945Z,17.85
2018-08-10T04:36:12.051Z,17.76
2018-08-10T04:37:12.196Z,17.74
2018-08-10T04:38:12.357Z,17.68
2018-08-10T04:39:12.527Z,17.72
2018-08-10T04:40:12.740Z,17.65
2018-08-10T04:41:12.977Z,17.71
2018-08-10T04:42:13.098Z,17.56
2018-08-10T04:43:13.271Z,17.59
2018-08-10T04:44:13.421Z,17.60
2018-08-10T04:45:13.536Z,17.54
2018-08-10T04:46:13.754Z,17.65
2018-08-10T04:47:13.924Z,17.63
2018-08-10T04:48:14.171Z,17.59
2018-08-10T04:49:14.319Z,17.59
2018-08-10T04:50:14.385Z,17.67
2018-08-10T04:51:14.634Z,17.60
2018-08-10T04:52:14.817Z,17.56
2018-08-10T04:53:14.891Z,17.56
2018-08-10T04:54:15.085Z,17.68
2018-08-10T04:55:15.367Z,17.64
2018-08-10T04:56:15.355Z,17.59
2018-08-10T04:57:15.576Z,17.48
2018-08-10T04:58:15.768Z,17.44
2018-08-10T04:59:15.932Z,17.46
2018-08-10T05:00:16.098Z,17.39
2018-08-10T05:01:16.210Z,17.44
2018-08-10T05:02:16.410Z,17.42
2018-08-10T05:03:16.627Z,17.42
2018-08-10T05:04:16.745Z,17.41
2018-08-10T05:05:16.941Z,17.44
2018-08-10T05:06:17.147Z,17.38
2018-08-10T05:07:17.315Z,17.42
2018-08-10T05:08:17.466Z,17.31
2018-08-10T05:09:17.598Z,17.31
2018-08-10T05:10:17.789Z,17.27
2018-08-10T05:11:18.013Z,17.27
2018-08-10T05:12:18.098Z,17.23
2018-08-10T05:13:18.309Z,17.22
2018-08-10T05:14:18.484Z,17.23
2018-08-10T05:15:18.696Z,17.26
2018-08-10T05:16:19.034Z,17.23
2018-08-10T05:17:19.025Z,17.30
2018-08-10T05:18:19.144Z,17.27
2018-08-10T05:19:19.356Z,17.20
2018-08-10T05:20:19.501Z,17.20
2018-08-10T05:21:19.607Z,17.26
2018-08-10T05:22:19.829Z,17.29
2018-08-10T05:23:20.126Z,17.26
2018-08-10T05:24:20.297Z,17.19
2018-08-10T05:25:20.379Z,17.27
2018-08-10T05:26:20.635Z,17.26
2018-08-10T05:27:22.441Z,17.24
2018-08-10T05:28:33.183Z,17.30
2018-08-10T05:29:23.918Z,17.31
2018-08-10T05:30:21.693Z,17.27
2018-08-10T05:31:24.178Z,17.27
2018-08-10T05:32:26.285Z,17.30
2018-08-10T05:33:24.242Z,17.27
2018-08-10T05:43:05.629Z,17.57
2018-08-10T06:05:41.215Z,18.04
2018-08-10T06:06:40.794Z,18.31
2018-08-10T08:09:21.054Z,21.70
2018-08-10T09:33:13.469Z,24.63
2018-08-10T09:47:01.473Z,25.36
2018-08-10T09:59:16.996Z,26.06
2018-08-10T10:00:13.868Z,25.66
2018-08-10T10:01:19.049Z,24.99
2018-08-10T10:05:57.588Z,25.68
2018-08-10T10:06:53.997Z,25.73
2018-08-10T10:38:56.814Z,30.51
2018-08-10T10:39:51.805Z,30.66
2018-08-10T10:41:49.031Z,30.34
2018-08-10T10:55:01.246Z,30.09
2018-08-10T10:58:58.800Z,30.47
2018-08-10T10:59:59.129Z,30.03
2018-08-10T11:00:55.846Z,30.08
2018-08-10T11:01:54.683Z,29.94
2018-08-10T11:02:54.811Z,29.94
2018-08-10T11:03:54.909Z,30.03
2018-08-10T11:04:55.211Z,30.59
2018-08-10T11:05:57.238Z,31.10
2018-08-10T11:06:55.967Z,31.52
2018-08-10T11:07:56.193Z,31.31
2018-08-10T11:08:56.192Z,31.43
2018-08-10T11:09:55.951Z,31.59
2018-08-10T11:10:56.865Z,31.25
2018-08-10T11:11:57.154Z,30.35
2018-08-10T11:13:56.877Z,28.57
2018-08-10T11:14:57.107Z,28.56
2018-08-10T11:15:57.384Z,28.56
2018-08-10T11:16:58.381Z,28.00
2018-08-10T11:17:57.633Z,28.17
2018-08-10T11:18:57.829Z,28.38
2018-08-10T11:20:59.261Z,28.12
2018-08-10T11:21:58.471Z,28.60
2018-08-10T11:22:59.202Z,29.31
2018-08-10T11:23:59.254Z,29.29
2018-08-10T11:25:00.597Z,28.75
2018-08-10T11:25:59.238Z,28.19
2018-08-10T11:27:00.019Z,27.70
2018-08-10T11:28:00.290Z,27.73
2018-08-10T11:29:33.507Z,27.68
2018-08-10T11:31:00.365Z,27.74
2018-08-10T11:32:00.751Z,27.21
2018-08-10T11:33:00.693Z,27.10
2018-08-10T11:34:01.326Z,27.48
2018-08-10T11:35:01.030Z,26.92
2018-08-10T11:36:01.296Z,27.37
2018-08-10T11:37:02.073Z,27.33
2018-08-10T11:38:05.306Z,28.22
2018-08-10T11:39:03.110Z,28.81
2018-08-10T11:40:01.944Z,28.15
2018-08-10T11:41:02.152Z,27.75
2018-08-10T11:42:02.561Z,28.56
2018-08-10T11:43:02.440Z,28.70
2018-08-10T11:44:02.871Z,29.14
2018-08-10T11:45:04.282Z,29.51
2018-08-10T11:46:03.745Z,29.51
2018-08-10T11:47:03.167Z,28.97
2018-08-10T11:48:03.202Z,28.78
2018-08-10T11:49:03.772Z,28.69
2018-08-10T12:03:43.175Z,32.29
2018-08-10T12:10:27.026Z,32.67
2018-08-10T12:11:02.853Z,32.77
2018-08-10T12:13:44.230Z,31.66
2018-08-10T12:14:42.615Z,32.22
2018-08-10T12:15:41.862Z,32.73
2018-08-10T12:16:42.134Z,33.19
2018-08-10T12:17:43.249Z,32.55
2018-08-10T12:18:42.283Z,32.60
2018-08-10T12:19:42.735Z,32.34
2018-08-10T12:20:42.720Z,31.73
2018-08-10T12:21:43.064Z,30.57
2018-08-10T12:22:43.125Z,30.23
2018-08-10T12:23:43.638Z,29.49
2018-08-10T12:24:43.391Z,28.72
2018-08-10T12:25:43.764Z,28.91
2018-08-10T12:26:43.658Z,28.62
2018-08-10T12:27:43.757Z,28.54
2018-08-10T12:28:44.075Z,28.10
2018-08-10T12:29:44.080Z,27.65
2018-08-10T12:30:44.309Z,27.64
2018-08-10T12:31:44.564Z,28.63
2018-08-10T12:32:44.647Z,29.73
2018-08-10T12:33:45.529Z,30.25
2018-08-10T12:34:45.591Z,30.68
2018-08-10T12:35:45.476Z,31.36
2018-08-10T12:37:46.725Z,31.46
2018-08-10T12:37:48.859Z,31.70
2018-08-10T12:38:48.140Z,32.03
2018-08-10T12:39:48.357Z,32.27
2018-08-10T12:40:48.454Z,32.59
2018-08-10T12:41:48.654Z,32.82
2018-08-10T12:42:49.118Z,33.22
2018-08-10T12:43:49.358Z,33.49
2018-08-10T12:44:49.452Z,33.43
2018-08-10T12:45:50.048Z,33.31
2018-08-10T12:46:50.360Z,33.67
2018-08-10T12:47:50.050Z,34.01
2018-08-10T12:48:50.412Z,34.06
2018-08-10T12:49:50.497Z,34.23
2018-08-10T12:51:51.627Z,34.01
2018-08-10T12:54:24.330Z,33.50
2018-08-10T12:58:54.024Z,33.99
2018-08-10T12:59:17.560Z,34.33
2018-08-10T13:00:17.433Z,34.55
2018-08-10T13:01:17.705Z,34.40
2018-08-10T13:03:18.750Z,34.08
2018-08-10T13:04:44.423Z,33.69
2018-08-10T13:06:55.143Z,34.13
2018-08-10T13:09:41.691Z,34.25
2018-08-10T13:13:25.512Z,33.98
2018-08-10T13:20:35.969Z,29.39
2018-08-10T13:23:38.018Z,28.98
2018-08-10T13:23:46.732Z,28.89
2018-08-10T13:26:02.679Z,28.60
2018-08-10T13:27:19.782Z,28.19
2018-08-10T13:27:54.822Z,27.95
2018-08-10T13:30:21.855Z,27.49
2018-08-10T13:31:14.383Z,27.15
2018-08-10T13:32:49.978Z,26.95
2018-08-10T13:33:49.628Z,27.03
2018-08-10T13:34:47.985Z,26.92
2018-08-10T13:35:46.127Z,27.15
2018-08-10T13:37:46.298Z,28.02
2018-08-10T13:38:46.648Z,27.78
2018-08-10T13:39:46.673Z,27.78
2018-08-10T13:40:47.830Z,27.82
2018-08-10T13:41:47.016Z,28.42
2018-08-10T13:42:47.871Z,29.93
2018-08-10T13:43:47.235Z,30.39
2018-08-10T13:44:47.375Z,30.43
2018-08-10T13:45:47.771Z,30.59
2018-08-10T13:46:48.008Z,31.14
2018-08-10T13:47:48.150Z,31.12
2018-08-10T13:48:48.239Z,30.55
2018-08-10T13:49:48.871Z,29.84
2018-08-10T13:50:48.919Z,29.13
2018-08-10T13:51:49.349Z,28.70
2018-08-10T13:52:49.794Z,28.44
2018-08-10T13:53:50.206Z,28.08
2018-08-10T13:54:49.344Z,28.37
2018-08-10T13:55:49.467Z,28.32
2018-08-10T13:56:49.793Z,28.19
2018-08-10T13:57:50.493Z,28.19
2018-08-10T13:58:50.199Z,27.83
2018-08-10T13:59:50.590Z,27.68
2018-08-10T14:00:50.364Z,28.38
2018-08-10T14:01:50.992Z,29.53
2018-08-10T14:02:50.887Z,30.51
2018-08-10T14:03:52.200Z,31.59
2018-08-10T14:04:52.671Z,32.30
2018-08-10T14:05:53.301Z,32.55
2018-08-10T14:06:51.493Z,31.99
2018-08-10T14:07:53.944Z,31.31
2018-08-10T14:08:52.859Z,30.12
2018-08-10T14:09:52.064Z,29.60
2018-08-10T14:10:52.105Z,29.20
2018-08-10T14:11:52.426Z,28.86
2018-08-10T14:12:52.566Z,28.51
2018-08-10T14:13:52.562Z,28.30
2018-08-10T14:14:53.672Z,27.92
2018-08-10T14:16:13.906Z,27.48
2018-08-10T14:19:30.021Z,27.33
2018-08-10T14:20:32.228Z,27.15
2018-08-10T14:21:31.759Z,27.20
2018-08-10T14:23:32.765Z,27.05
2018-08-10T14:24:32.676Z,27.11
2018-08-10T14:25:37.517Z,26.89
2018-08-10T14:26:35.764Z,26.73
2018-08-10T14:27:31.555Z,26.37
2018-08-10T14:28:47.547Z,26.40
2018-08-10T14:30:46.903Z,26.29
2018-08-10T14:31:32.269Z,26.26
2018-08-10T14:32:33.197Z,26.13
2018-08-10T14:33:34.620Z,25.95
2018-08-10T14:34:37.279Z,25.96
2018-08-10T14:35:42.849Z,25.96
2018-08-10T14:36:42.213Z,26.09
2018-08-10T14:37:33.311Z,26.26
2018-08-10T14:38:35.210Z,26.77
2018-08-10T14:41:56.083Z,27.40
2018-08-10T14:42:57.939Z,27.26
2018-08-10T14:44:26.014Z,27.05
2018-08-10T14:44:57.785Z,26.89
2018-08-10T14:47:03.039Z,26.40
2018-08-10T14:48:57.796Z,25.90
2018-08-10T14:50:00.000Z,25.75
2018-08-10T14:50:57.231Z,25.78
2018-08-10T14:51:57.868Z,25.73
2018-08-10T14:53:57.233Z,25.65
2018-08-10T14:54:56.559Z,25.80
2018-08-10T14:55:55.631Z,25.78
2018-08-10T14:56:55.924Z,25.59
2018-08-10T14:57:56.047Z,25.58
2018-08-10T14:58:56.141Z,25.53
2018-08-10T14:59:57.513Z,25.59
2018-08-10T15:01:56.710Z,25.51
2018-08-10T15:02:56.921Z,25.63
2018-08-10T15:03:56.968Z,25.54
2018-08-10T15:04:57.293Z,25.68
2018-08-10T15:05:57.390Z,25.65
2018-08-10T15:06:57.564Z,25.66
2018-08-10T15:07:57.748Z,25.80
2018-08-10T15:08:57.964Z,25.78
2018-08-10T15:09:58.158Z,26.06
2018-08-10T15:10:58.271Z,26.89
2018-08-10T15:12:11.974Z,27.14
2018-08-10T15:12:59.145Z,28.25
2018-08-10T15:13:58.831Z,28.81
2018-08-10T15:14:59.192Z,28.42
2018-08-10T15:15:59.126Z,28.22
2018-08-10T15:16:59.712Z,28.07
2018-08-10T15:17:59.568Z,27.83
2018-08-10T15:19:00.019Z,27.63
2018-08-10T15:20:02.461Z,27.51
2018-08-10T15:21:00.113Z,27.33
2018-08-10T15:22:00.318Z,27.14
2018-08-10T15:23:00.592Z,26.97
2018-08-10T15:24:00.691Z,26.92
2018-08-10T15:25:01.009Z,26.59
2018-08-10T15:26:01.003Z,26.55
2018-08-10T15:27:01.202Z,26.51
2018-08-10T15:28:01.581Z,26.23
2018-08-10T15:29:01.616Z,25.95
2018-08-10T15:30:02.634Z,25.65
2018-08-10T15:31:01.814Z,25.75
2018-08-10T15:32:02.816Z,26.71
2018-08-10T15:33:02.336Z,27.35
2018-08-10T15:34:02.409Z,27.98
2018-08-10T15:37:42.334Z,29.49
2018-08-10T15:39:50.373Z,30.15
2018-08-10T15:40:39.934Z,29.87
2018-08-10T15:41:42.271Z,29.35
2018-08-10T15:44:40.903Z,27.54
2018-08-10T15:45:38.846Z,27.08
2018-08-10T15:46:42.418Z,26.84
2018-08-10T15:48:39.026Z,26.63
2018-08-10T15:49:38.855Z,27.20
2018-08-10T15:50:39.127Z,27.83
2018-08-10T15:51:39.808Z,27.74
2018-08-10T15:52:39.394Z,27.86
2018-08-10T15:53:39.589Z,27.48
2018-08-10T15:54:39.609Z,27.32
2018-08-10T15:58:43.206Z,26.22
2018-08-10T16:01:43.438Z,25.36
2018-08-10T16:02:42.291Z,25.60
2018-08-10T16:03:41.427Z,25.26
2018-08-10T16:04:45.451Z,25.11
2018-08-10T16:09:33.857Z,24.73
2018-08-10T16:10:26.494Z,25.01
2018-08-10T16:11:27.599Z,25.28
2018-08-10T16:12:25.591Z,25.47
2018-08-10T16:13:25.712Z,25.47
2018-08-10T16:14:26.879Z,25.32
2018-08-10T16:15:25.925Z,25.32
2018-08-10T16:17:26.089Z,25.50
2018-08-10T16:18:27.042Z,25.47
2018-08-10T16:20:26.643Z,25.18
2018-08-10T16:21:26.631Z,25.01
2018-08-10T16:22:27.042Z,24.89
2018-08-10T16:23:28.715Z,24.96
2018-08-10T16:25:28.441Z,25.10
2018-08-10T16:26:27.525Z,25.17
2018-08-10T16:27:27.557Z,25.21
2018-08-10T16:28:28.759Z,25.23
2018-08-10T16:29:28.027Z,25.22
2018-08-10T16:34:33.523Z,24.69
2018-08-10T16:35:59.956Z,24.54
2018-08-10T16:36:59.604Z,24.40
2018-08-10T16:37:59.860Z,24.36
2018-08-10T16:39:00.453Z,24.28
2018-08-10T16:48:19.332Z,25.01
2018-08-10T17:01:20.881Z,24.91
2018-08-10T17:23:48.197Z,24.14
2018-08-10T19:38:59.778Z,19.29
2018-08-10T19:39:59.164Z,19.14
2018-08-10T20:22:53.114Z,18.20
2018-08-10T20:37:46.858Z,17.64
2018-08-10T20:38:36.660Z,17.68
2018-08-10T20:39:36.828Z,17.65
2018-08-10T20:42:15.261Z,17.60
2018-08-10T20:43:08.183Z,17.59
2018-08-10T20:44:08.248Z,17.63
2018-08-10T20:45:08.770Z,17.52
2018-08-10T20:46:07.535Z,17.56
2018-08-10T20:47:06.774Z,17.44
2018-08-10T20:51:59.881Z,17.19
2018-08-10T20:54:08.629Z,17.11
2018-08-10T20:54:44.929Z,17.22
2018-08-10T21:05:11.362Z,16.96
2018-08-10T21:14:27.486Z,16.78
2018-08-10T21:15:51.891Z,16.81
2018-08-10T21:20:38.434Z,16.47
2018-08-10T21:21:45.252Z,16.54
2018-08-10T21:22:33.469Z,16.47
2018-08-10T21:23:34.112Z,16.38
2018-08-10T21:24:34.401Z,16.35
2018-08-10T21:25:42.688Z,16.29
